ESSB/BMA METAR and TAF weather

Enter ICAO airport designator
Station Type Date Time Source
ESSB METAR 2019/12/10 03:20 UTC NOAA

ESSB 100320Z AUTO 31009KT 9999 NCD M03/M03 Q1004


Station Type Date Time Source
ESSB Decoded METAR 2019/12/10 03:20 UTC NOAA

Stockholm / Bromma, Sweden (ESSB) 59-21N 017-57E 14M
Dec 09, 2019 - 10:20 PM EST / 2019.12.10 0320 UTC
Wind: from the NW (310 degrees) at 10 MPH (9 KT):0
Visibility: greater than 7 mile(s):0
Temperature: 26 F (-3 C)
Windchill: 15 F (-9 C):1
Dew Point: 26 F (-3 C)
Relative Humidity: 100%
Pressure (altimeter): 29.65 in. Hg (1004 hPa)
ob: ESSB 100320Z AUTO 31009KT 9999 NCD M03/M03 Q1004
cycle: 3

Station Type Date Time Source
ESSB TAF 2017/03/27 06:35 UTC NOAA

TAF ESSB 270530Z 2706/2724 27008KT CAVOK
BECMG 2710/2713 29015G25KT

Example: see airport list